createdAt,value
2017-08-30T00:00:50.778Z,99.90
2017-08-30T00:03:19.393Z,99.90
2017-08-30T00:05:47.742Z,99.90
2017-08-30T00:08:16.012Z,99.90
2017-08-30T00:10:44.691Z,99.90
2017-08-30T00:13:14.694Z,99.90
2017-08-30T00:15:43.357Z,99.90
2017-08-30T00:18:12.619Z,99.90
2017-08-30T00:20:40.953Z,99.90
2017-08-30T00:23:09.264Z,99.90
2017-08-30T00:25:49.508Z,99.90
2017-08-30T00:28:18.096Z,99.90
2017-08-30T00:30:46.404Z,99.90
2017-08-30T00:33:14.718Z,99.90
2017-08-30T00:35:43.408Z,99.90
2017-08-30T00:38:11.677Z,99.90
2017-08-30T00:40:40.032Z,99.90
2017-08-30T00:43:08.689Z,99.90
2017-08-30T00:45:36.984Z,99.90
2017-08-30T00:48:05.315Z,99.90
2017-08-30T00:50:33.945Z,99.90
2017-08-30T00:53:02.222Z,99.90
2017-08-30T00:55:30.515Z,99.90
2017-08-30T00:57:58.841Z,99.90
2017-08-30T01:00:27.204Z,99.90
2017-08-30T01:02:55.832Z,99.90
2017-08-30T01:05:24.184Z,99.90
2017-08-30T01:07:52.596Z,99.90
2017-08-30T01:10:20.974Z,99.90
2017-08-30T01:12:49.255Z,99.90
2017-08-30T01:15:18.522Z,99.90
2017-08-30T01:17:46.833Z,99.90
2017-08-30T01:20:15.173Z,99.90
2017-08-30T01:22:43.464Z,99.90
2017-08-30T01:25:11.781Z,99.90
2017-08-30T01:27:40.356Z,99.90
2017-08-30T01:30:08.659Z,99.90
2017-08-30T01:32:37.063Z,99.90
2017-08-30T01:35:05.857Z,99.90
2017-08-30T01:37:34.167Z,99.90
2017-08-30T01:40:02.820Z,99.90
2017-08-30T01:42:31.150Z,99.90
2017-08-30T01:44:59.432Z,99.90
2017-08-30T01:47:28.356Z,99.90
2017-08-30T01:49:57.921Z,99.90
2017-08-30T01:52:26.479Z,99.90
2017-08-30T01:54:54.772Z,99.90
2017-08-30T01:57:23.101Z,99.90
2017-08-30T01:59:51.753Z,99.90
2017-08-30T02:02:20.168Z,99.90
2017-08-30T02:04:48.471Z,99.90
2017-08-30T02:07:16.789Z,99.90
2017-08-30T02:09:46.293Z,99.90
2017-08-30T02:12:15.587Z,99.90
2017-08-30T02:14:44.343Z,99.90
2017-08-30T02:17:12.681Z,99.90
2017-08-30T02:19:41.346Z,99.90
2017-08-30T02:22:09.636Z,99.90
2017-08-30T02:24:37.942Z,99.90
2017-08-30T02:27:07.314Z,99.90
2017-08-30T02:29:35.639Z,99.90
2017-08-30T02:32:03.981Z,99.90
2017-08-30T02:34:32.876Z,99.90
2017-08-30T02:37:01.201Z,99.90
2017-08-30T02:39:29.759Z,99.90
2017-08-30T02:41:58.098Z,99.90
2017-08-30T02:44:26.382Z,99.90
2017-08-30T02:46:55.000Z,99.90
2017-08-30T02:49:23.293Z,99.90
2017-08-30T02:51:51.662Z,99.90
2017-08-30T02:54:19.995Z,99.90
2017-08-30T02:56:48.272Z,99.90
2017-08-30T02:59:16.941Z,99.90
2017-08-30T03:01:45.562Z,99.90
2017-08-30T03:04:13.824Z,99.90
2017-08-30T03:06:42.678Z,99.90
2017-08-30T03:09:10.985Z,99.90
2017-08-30T03:11:39.651Z,99.90
2017-08-30T03:14:08.736Z,99.90
2017-08-30T03:16:37.026Z,99.90
2017-08-30T03:19:05.642Z,99.90
2017-08-30T03:21:34.839Z,99.90
2017-08-30T03:24:03.620Z,99.90
2017-08-30T03:26:33.027Z,99.90
2017-08-30T03:29:01.356Z,99.90
2017-08-30T03:31:29.636Z,99.90
2017-08-30T03:33:59.754Z,99.90
2017-08-30T03:36:28.937Z,99.90
2017-08-30T03:38:57.613Z,99.90
2017-08-30T03:41:25.944Z,99.90
2017-08-30T03:43:54.703Z,99.90
2017-08-30T03:46:23.347Z,99.90
2017-08-30T03:48:51.780Z,99.90
2017-08-30T03:51:20.096Z,99.90
2017-08-30T03:53:48.738Z,99.90
2017-08-30T03:56:17.283Z,99.90
2017-08-30T03:58:45.938Z,99.90
2017-08-30T04:01:14.856Z,99.90
2017-08-30T04:03:43.157Z,99.90
2017-08-30T04:06:11.475Z,99.90
2017-08-30T04:08:40.597Z,99.90
2017-08-30T04:11:09.289Z,99.90
2017-08-30T04:13:38.050Z,99.90
2017-08-30T04:16:06.348Z,99.90
2017-08-30T04:18:35.713Z,99.90
2017-08-30T04:21:04.021Z,99.90
2017-08-30T04:23:32.912Z,99.90
2017-08-30T04:26:01.549Z,99.90
2017-08-30T04:28:30.198Z,99.90
2017-08-30T04:30:58.884Z,99.90
2017-08-30T04:33:27.237Z,99.90
2017-08-30T04:35:56.113Z,99.90
2017-08-30T04:38:24.744Z,99.90
2017-08-30T04:40:53.018Z,99.90
2017-08-30T04:43:23.170Z,99.90
2017-08-30T04:45:52.164Z,99.90
2017-08-30T04:48:21.502Z,99.90
2017-08-30T04:50:49.831Z,99.90
2017-08-30T04:53:18.426Z,99.90
2017-08-30T04:55:48.032Z,99.90
2017-08-30T04:58:16.349Z,99.90
2017-08-30T05:00:44.996Z,99.90
2017-08-30T05:03:13.396Z,99.90
2017-08-30T05:05:41.839Z,99.90
2017-08-30T05:08:10.168Z,99.90
2017-08-30T05:10:38.819Z,99.90
2017-08-30T05:13:07.415Z,99.90
2017-08-30T05:15:35.760Z,99.90
2017-08-30T05:18:04.080Z,99.90
2017-08-30T05:20:32.675Z,99.90
2017-08-30T05:23:01.012Z,99.90
2017-08-30T05:25:29.346Z,99.90
2017-08-30T05:27:59.062Z,99.90
2017-08-30T05:30:27.394Z,99.90
2017-08-30T05:32:55.754Z,99.90
2017-08-30T05:35:24.509Z,99.90
2017-08-30T05:37:52.955Z,99.90
2017-08-30T05:40:22.082Z,99.90
2017-08-30T05:42:50.740Z,99.90
2017-08-30T05:45:19.071Z,99.90
2017-08-30T05:47:48.134Z,99.90
2017-08-30T05:50:16.762Z,99.90
2017-08-30T05:52:45.133Z,99.90
2017-08-30T05:55:13.455Z,99.90
2017-08-30T05:57:42.360Z,99.90
2017-08-30T06:00:10.721Z,99.90
2017-08-30T06:02:39.022Z,99.90
2017-08-30T06:05:07.390Z,99.90
2017-08-30T06:07:35.835Z,99.90
2017-08-30T06:10:05.138Z,99.90
2017-08-30T06:12:33.454Z,99.90
2017-08-30T06:15:02.261Z,99.90
2017-08-30T06:17:30.970Z,99.90
2017-08-30T06:20:00.296Z,99.90
2017-08-30T06:22:28.634Z,99.90
2017-08-30T06:25:00.270Z,99.90
2017-08-30T06:27:28.575Z,99.90
2017-08-30T06:29:57.004Z,99.90
2017-08-30T06:32:25.698Z,99.90
2017-08-30T06:34:54.123Z,99.90
2017-08-30T06:37:22.569Z,99.90
2017-08-30T06:39:51.654Z,99.90
2017-08-30T06:42:19.973Z,99.90
2017-08-30T06:44:48.602Z,99.90
2017-08-30T06:47:16.899Z,99.90
2017-08-30T06:49:45.287Z,99.90
2017-08-30T06:52:14.151Z,99.90
2017-08-30T06:54:42.637Z,99.80
2017-08-30T06:57:11.240Z,99.80
2017-08-30T06:59:40.003Z,99.20
2017-08-30T07:02:08.710Z,98.60
2017-08-30T07:04:37.198Z,98.50
2017-08-30T07:07:05.489Z,98.40
2017-08-30T07:09:34.181Z,98.40
2017-08-30T07:12:04.020Z,98.70
2017-08-30T07:14:32.846Z,98.00
2017-08-30T07:17:01.467Z,97.50
2017-08-30T07:19:29.784Z,97.20
2017-08-30T07:21:58.093Z,97.20
2017-08-30T07:24:26.524Z,96.60
2017-08-30T07:26:54.849Z,96.70
2017-08-30T07:29:23.900Z,97.00
2017-08-30T07:31:52.323Z,96.00
2017-08-30T07:34:21.552Z,95.80
2017-08-30T07:36:49.860Z,95.40
2017-08-30T07:39:18.162Z,95.10
2017-08-30T07:41:46.787Z,95.50
2017-08-30T07:44:15.096Z,95.20
2017-08-30T07:46:43.612Z,94.70
2017-08-30T07:49:11.937Z,94.60
2017-08-30T07:51:41.039Z,94.20
2017-08-30T07:54:10.588Z,93.80
2017-08-30T07:56:38.883Z,94.10
2017-08-30T07:59:07.615Z,94.10
2017-08-30T08:01:36.945Z,93.30
2017-08-30T08:04:05.699Z,93.30
2017-08-30T08:06:34.039Z,93.90
2017-08-30T08:09:02.327Z,99.90
2017-08-30T08:11:30.652Z,99.90
2017-08-30T08:13:59.005Z,93.10
2017-08-30T08:16:27.564Z,93.10
2017-08-30T08:18:57.289Z,92.40
2017-08-30T08:21:25.566Z,93.10
2017-08-30T08:23:54.198Z,91.30
2017-08-30T08:26:22.911Z,91.40
2017-08-30T08:28:51.233Z,91.30
2017-08-30T08:31:21.070Z,99.90
2017-08-30T08:33:50.517Z,99.90
2017-08-30T08:36:18.862Z,99.90
2017-08-30T08:38:50.315Z,99.90
2017-08-30T08:41:18.715Z,99.90
2017-08-30T08:43:48.568Z,99.90
2017-08-30T08:46:18.066Z,99.90
2017-08-30T08:48:47.516Z,99.10
2017-08-30T08:51:16.423Z,98.30
2017-08-30T08:53:45.023Z,98.20
2017-08-30T08:56:13.309Z,98.30
2017-08-30T08:58:43.135Z,97.30
2017-08-30T09:01:12.103Z,96.90
2017-08-30T09:03:48.266Z,99.90
2017-08-30T09:06:16.610Z,99.90
2017-08-30T09:08:45.685Z,99.90
2017-08-30T09:26:12.926Z,92.50
2017-08-30T09:28:41.833Z,93.60
2017-08-30T09:31:10.130Z,85.80
2017-08-30T09:33:38.734Z,83.40
2017-08-30T09:36:08.522Z,99.90
2017-08-30T09:38:38.731Z,99.90
2017-08-30T09:41:09.126Z,99.90
2017-08-30T09:43:37.470Z,99.90
2017-08-30T10:08:33.697Z,91.40
2017-08-30T10:11:02.869Z,94.80
2017-08-30T10:21:00.132Z,93.30
2017-08-30T10:23:30.356Z,70.70
2017-08-30T10:25:58.678Z,70.80
2017-08-30T10:28:27.297Z,77.50
2017-08-30T10:30:55.582Z,75.40
2017-08-30T10:38:24.491Z,56.60
2017-08-30T10:43:22.406Z,55.30
2017-08-30T10:45:51.011Z,56.50
2017-08-30T10:50:48.911Z,95.90
2017-08-30T10:55:47.289Z,94.50
2017-08-30T11:13:15.428Z,72.90
2017-08-30T11:30:43.101Z,37.80
2017-08-30T11:43:12.002Z,45.20
2017-08-30T11:45:44.411Z,45.80
2017-08-30T11:50:43.113Z,35.90
2017-08-30T11:53:11.425Z,36.00
2017-08-30T11:55:41.662Z,35.10
2017-08-30T12:13:07.799Z,30.00
2017-08-30T12:15:36.278Z,30.90
2017-08-30T12:18:05.376Z,30.60
2017-08-30T12:20:33.773Z,30.80
2017-08-30T12:23:02.459Z,31.30
2017-08-30T12:25:31.467Z,32.10
2017-08-30T12:27:59.793Z,49.40
2017-08-30T12:30:29.873Z,32.70
2017-08-30T12:32:59.316Z,44.60
2017-08-30T12:35:29.141Z,30.50
2017-08-30T12:38:03.795Z,30.40
2017-08-30T12:48:01.725Z,31.80
2017-08-30T12:52:59.874Z,34.20
2017-08-30T13:00:27.702Z,74.20
2017-08-30T13:07:56.517Z,65.30
2017-08-30T13:12:54.700Z,72.90
2017-08-30T13:15:23.902Z,61.90
2017-08-30T13:17:52.184Z,68.50
2017-08-30T13:22:51.005Z,37.30
2017-08-30T13:25:19.636Z,36.80
2017-08-30T13:27:47.953Z,37.10
2017-08-30T13:32:48.088Z,56.40
2017-08-30T13:37:47.135Z,78.70
2017-08-30T13:40:16.546Z,66.00
2017-08-30T13:42:45.345Z,66.80
2017-08-30T13:45:13.929Z,73.20
2017-08-30T13:47:42.293Z,73.30
2017-08-30T13:50:11.398Z,73.80
2017-08-30T13:52:39.782Z,76.60
2017-08-30T13:57:37.916Z,82.90
2017-08-30T14:00:06.273Z,84.60
2017-08-30T14:27:32.516Z,35.10
2017-08-30T14:30:00.824Z,36.00
2017-08-30T14:32:31.573Z,37.80
2017-08-30T14:34:59.911Z,37.80
2017-08-30T14:42:27.675Z,78.90
2017-08-30T14:47:26.570Z,48.20
2017-08-30T14:52:25.939Z,42.10
2017-08-30T14:54:56.574Z,31.40
2017-08-30T14:57:24.885Z,31.80
2017-08-30T14:59:54.018Z,33.20
2017-08-30T15:02:22.312Z,33.90
2017-08-30T15:44:47.503Z,33.70
2017-08-30T15:47:15.786Z,34.40
2017-08-30T15:49:44.774Z,35.90
2017-08-30T15:52:13.175Z,36.10
2017-08-30T15:54:42.610Z,53.30
2017-08-30T15:57:11.251Z,53.10
2017-08-30T15:59:40.255Z,38.30
2017-08-30T16:02:08.535Z,46.30
2017-08-30T16:04:36.869Z,48.50
2017-08-30T16:07:06.392Z,46.20
2017-08-30T16:09:36.657Z,47.00
2017-08-30T16:12:06.407Z,62.80
2017-08-30T16:14:34.709Z,62.30
2017-08-30T16:17:03.592Z,65.40
2017-08-30T16:19:31.920Z,66.70
2017-08-30T16:22:00.706Z,67.00
2017-08-30T16:24:29.034Z,68.30
2017-08-30T16:26:57.386Z,67.90
2017-08-30T16:29:25.696Z,68.70
2017-08-30T16:31:54.021Z,69.10
2017-08-30T16:34:22.652Z,69.70
2017-08-30T16:36:51.396Z,48.70
2017-08-30T16:46:06.801Z,49.30
2017-08-30T16:48:35.513Z,50.10
2017-08-30T16:51:04.086Z,50.80
2017-08-30T16:53:32.374Z,50.90
2017-08-30T16:56:00.686Z,50.90
2017-08-30T16:58:29.739Z,51.20
2017-08-30T17:00:58.021Z,51.50
2017-08-30T17:03:26.310Z,51.70
2017-08-30T17:05:55.205Z,51.80
2017-08-30T17:08:24.004Z,52.10
2017-08-30T17:10:53.246Z,52.30
2017-08-30T17:13:21.784Z,54.30
2017-08-30T17:15:50.192Z,54.40
2017-08-30T17:18:18.861Z,54.10
2017-08-30T17:20:47.160Z,54.00
2017-08-30T17:23:16.242Z,54.10
2017-08-30T17:25:44.568Z,54.20
2017-08-30T17:28:13.795Z,54.40
2017-08-30T17:30:48.320Z,55.10
2017-08-30T17:33:16.600Z,54.70
2017-08-30T17:35:45.292Z,54.80
2017-08-30T17:38:13.865Z,54.90
2017-08-30T17:40:42.136Z,54.70
2017-08-30T17:43:10.797Z,55.50
2017-08-30T17:45:39.681Z,55.70
2017-08-30T17:48:07.957Z,56.10
2017-08-30T17:50:37.153Z,57.10
2017-08-30T17:53:05.481Z,56.90
2017-08-30T17:55:34.157Z,56.80
2017-08-30T17:58:03.300Z,57.30
2017-08-30T18:00:31.613Z,57.30
2017-08-30T18:03:00.303Z,57.20
2017-08-30T18:05:29.210Z,57.50
2017-08-30T18:07:57.522Z,57.60
2017-08-30T18:10:26.114Z,57.70
2017-08-30T18:12:54.421Z,58.30
2017-08-30T18:15:22.970Z,57.90
2017-08-30T18:17:52.041Z,58.00
2017-08-30T18:20:20.323Z,58.30
2017-08-30T18:22:48.876Z,58.30
2017-08-30T18:25:17.144Z,58.40
2017-08-30T18:27:45.742Z,58.30
2017-08-30T18:30:14.050Z,58.70
2017-08-30T18:32:42.762Z,58.80
2017-08-30T18:35:11.088Z,59.00
2017-08-30T18:37:39.384Z,59.20
2017-08-30T18:40:08.022Z,59.30
2017-08-30T18:42:37.237Z,59.50
2017-08-30T18:45:05.677Z,59.80
2017-08-30T18:47:34.780Z,60.10
2017-08-30T18:50:03.070Z,60.40
2017-08-30T18:52:31.666Z,60.80
2017-08-30T18:54:59.938Z,61.60
2017-08-30T18:57:28.421Z,62.00
2017-08-30T18:59:56.759Z,62.60
2017-08-30T19:02:25.519Z,62.90
2017-08-30T19:04:54.094Z,63.10
2017-08-30T19:07:22.482Z,63.40
2017-08-30T19:09:51.370Z,63.70
2017-08-30T19:12:19.706Z,64.30
2017-08-30T19:14:47.976Z,64.40
2017-08-30T19:17:17.349Z,64.80
2017-08-30T19:19:46.658Z,64.70
2017-08-30T19:22:15.647Z,65.20
2017-08-30T19:24:44.000Z,65.60
2017-08-30T19:27:13.757Z,73.70
2017-08-30T19:29:42.439Z,73.60
2017-08-30T19:32:11.511Z,74.10
2017-08-30T19:34:39.824Z,74.50
2017-08-30T19:37:08.144Z,74.20
2017-08-30T19:39:37.375Z,75.40
2017-08-30T19:42:05.977Z,74.90
2017-08-30T19:44:34.476Z,75.00
2017-08-30T19:47:02.781Z,75.50
2017-08-30T19:49:31.838Z,75.00
2017-08-30T19:52:00.123Z,75.10
2017-08-30T19:54:28.738Z,74.70
2017-08-30T19:56:57.021Z,74.80
2017-08-30T19:59:26.118Z,74.80
2017-08-30T20:01:55.489Z,75.00
2017-08-30T20:04:23.782Z,75.00
2017-08-30T20:06:52.091Z,75.50
2017-08-30T20:09:20.979Z,75.40
2017-08-30T20:11:49.454Z,75.70
2017-08-30T20:14:18.045Z,75.80
2017-08-30T20:16:46.359Z,75.80
2017-08-30T20:19:14.659Z,75.70
2017-08-30T20:21:43.706Z,76.90
2017-08-30T20:24:12.937Z,76.40
2017-08-30T20:26:41.654Z,76.20
2017-08-30T20:29:10.739Z,76.10
2017-08-30T20:31:39.137Z,76.30
2017-08-30T20:34:07.762Z,76.50
2017-08-30T20:36:36.102Z,76.30
2017-08-30T20:39:04.388Z,76.70
2017-08-30T20:41:32.742Z,76.90
2017-08-30T20:44:01.070Z,77.00
2017-08-30T20:46:30.127Z,76.30
2017-08-30T20:48:59.370Z,75.80
2017-08-30T20:51:27.727Z,75.90
2017-08-30T20:53:57.058Z,75.70
2017-08-30T20:56:26.008Z,75.80
2017-08-30T20:58:54.394Z,75.80
2017-08-30T21:01:23.022Z,75.80
2017-08-30T21:03:51.358Z,75.60
2017-08-30T21:06:21.043Z,75.80
2017-08-30T21:08:49.672Z,75.80
2017-08-30T21:11:18.276Z,75.90
2017-08-30T21:13:46.586Z,76.50
2017-08-30T21:16:15.257Z,76.90
2017-08-30T21:18:43.593Z,76.80
2017-08-30T21:21:11.874Z,76.80
2017-08-30T21:23:40.188Z,77.10
2017-08-30T21:26:09.249Z,77.20
2017-08-30T21:28:37.838Z,77.40
2017-08-30T21:31:06.148Z,77.70
2017-08-30T21:33:34.987Z,69.80
2017-08-30T21:36:03.300Z,70.00
2017-08-30T21:38:31.589Z,70.40
2017-08-30T21:41:01.375Z,71.50
2017-08-30T21:43:30.291Z,71.80
2017-08-30T21:45:58.601Z,71.20
2017-08-30T21:48:27.067Z,71.80
